sensor_id;sensor_type;location;lat;lon;timestamp;temperature;humidity
3300;DHT22;1662;49.310;8.134;2023-04-24T00:00:56;11.10;99.90
3300;DHT22;1662;49.310;8.134;2023-04-24T00:03:25;11.20;99.90
3300;DHT22;1662;49.310;8.134;2023-04-24T00:05:53;11.20;99.90
3300;DHT22;1662;49.310;8.134;2023-04-24T00:08:19;11.20;99.90
3300;DHT22;1662;49.310;8.134;2023-04-24T00:10:45;11.10;99.90
3300;DHT22;1662;49.310;8.134;2023-04-24T00:13:10;11.10;99.90
3300;DHT22;1662;49.310;8.134;2023-04-24T00:15:36;11.10;99.90
3300;DHT22;1662;49.310;8.134;2023-04-24T00:18:02;11.10;99.90
3300;DHT22;1662;49.310;8.134;2023-04-24T00:20:28;11.20;99.90
3300;DHT22;1662;49.310;8.134;2023-04-24T00:22:55;11.20;99.90
3300;DHT22;1662;49.310;8.134;2023-04-24T00:25:21;11.30;99.90
3300;DHT22;1662;49.310;8.134;2023-04-24T00:27:49;11.20;99.90
3300;DHT22;1662;49.310;8.134;2023-04-24T00:30:14;11.10;99.90
3300;DHT22;1662;49.310;8.134;2023-04-24T00:35:06;11.10;99.90
3300;DHT22;1662;49.310;8.134;2023-04-24T00:37:32;11.10;99.90
3300;DHT22;1662;49.310;8.134;2023-04-24T00:39:58;11.10;99.90
3300;DHT22;1662;49.310;8.134;2023-04-24T00:42:23;11.10;99.90
3300;DHT22;1662;49.310;8.134;2023-04-24T00:44:50;11.10;99.90
3300;DHT22;1662;49.310;8.134;2023-04-24T00:47:16;11.10;99.90
3300;DHT22;1662;49.310;8.134;2023-04-24T00:49:42;11.20;99.90
3300;DHT22;1662;49.310;8.134;2023-04-24T00:52:07;11.20;99.90
3300;DHT22;1662;49.310;8.134;2023-04-24T00:54:35;11.10;99.90
3300;DHT22;1662;49.310;8.134;2023-04-24T00:57:02;11.10;99.90
3300;DHT22;1662;49.310;8.134;2023-04-24T00:59:28;11.20;99.90
3300;DHT22;1662;49.310;8.134;2023-04-24T01:01:53;11.20;99.90
3300;DHT22;1662;49.310;8.134;2023-04-24T01:04:20;11.30;99.90
3300;DHT22;1662;49.310;8.134;2023-04-24T01:06:45;11.20;99.90
3300;DHT22;1662;49.310;8.134;2023-04-24T01:09:12;11.20;99.90
3300;DHT22;1662;49.310;8.134;2023-04-24T01:11:41;11.20;99.90
3300;DHT22;1662;49.310;8.134;2023-04-24T01:14:08;11.20;99.90
3300;DHT22;1662;49.310;8.134;2023-04-24T01:16:34;11.10;99.90
3300;DHT22;1662;49.310;8.134;2023-04-24T01:18:59;11.40;99.90
3300;DHT22;1662;49.310;8.134;2023-04-24T01:21:26;11.30;99.90
3300;DHT22;1662;49.310;8.134;2023-04-24T01:23:55;11.10;99.90
3300;DHT22;1662;49.310;8.134;2023-04-24T01:26:22;11.10;99.90
3300;DHT22;1662;49.310;8.134;2023-04-24T01:28:48;11.00;99.90
3300;DHT22;1662;49.310;8.134;2023-04-24T01:31:15;10.90;99.90
3300;DHT22;1662;49.310;8.134;2023-04-24T01:33:42;10.90;99.90
3300;DHT22;1662;49.310;8.134;2023-04-24T01:36:10;11.00;99.90
3300;DHT22;1662;49.310;8.134;2023-04-24T01:38:36;10.90;99.90
3300;DHT22;1662;49.310;8.134;2023-04-24T01:41:02;10.90;99.90
3300;DHT22;1662;49.310;8.134;2023-04-24T01:43:28;10.80;99.90
3300;DHT22;1662;49.310;8.134;2023-04-24T01:45:54;10.80;99.90
3300;DHT22;1662;49.310;8.134;2023-04-24T01:48:20;11.10;99.90
3300;DHT22;1662;49.310;8.134;2023-04-24T01:50:45;10.90;99.90
3300;DHT22;1662;49.310;8.134;2023-04-24T01:53:11;11.00;99.90
3300;DHT22;1662;49.310;8.134;2023-04-24T01:55:40;10.90;99.90
3300;DHT22;1662;49.310;8.134;2023-04-24T01:58:06;10.90;99.90
3300;DHT22;1662;49.310;8.134;2023-04-24T02:00:32;11.10;99.90
3300;DHT22;1662;49.310;8.134;2023-04-24T02:02:57;11.00;99.90
3300;DHT22;1662;49.310;8.134;2023-04-24T02:05:23;10.90;99.90
3300;DHT22;1662;49.310;8.134;2023-04-24T02:07:49;10.90;99.90
3300;DHT22;1662;49.310;8.134;2023-04-24T02:10:14;10.90;99.90
3300;DHT22;1662;49.310;8.134;2023-04-24T02:12:40;10.90;99.90
3300;DHT22;1662;49.310;8.134;2023-04-24T02:15:06;11.00;99.90
3300;DHT22;1662;49.310;8.134;2023-04-24T02:17:32;11.00;99.90
3300;DHT22;1662;49.310;8.134;2023-04-24T02:19:57;11.00;99.90
3300;DHT22;1662;49.310;8.134;2023-04-24T02:22:23;11.00;99.90
3300;DHT22;1662;49.310;8.134;2023-04-24T02:24:48;11.10;99.90
3300;DHT22;1662;49.310;8.134;2023-04-24T02:27:14;11.00;99.90
3300;DHT22;1662;49.310;8.134;2023-04-24T02:29:40;11.10;99.90
3300;DHT22;1662;49.310;8.134;2023-04-24T02:32:06;11.10;99.90
3300;DHT22;1662;49.310;8.134;2023-04-24T02:34:31;11.30;99.90
3300;DHT22;1662;49.310;8.134;2023-04-24T02:36:57;11.10;99.90
3300;DHT22;1662;49.310;8.134;2023-04-24T02:39:23;11.00;99.90
3300;DHT22;1662;49.310;8.134;2023-04-24T02:41:51;11.10;99.90
3300;DHT22;1662;49.310;8.134;2023-04-24T02:44:16;11.00;99.90
3300;DHT22;1662;49.310;8.134;2023-04-24T02:46:42;10.90;99.90
3300;DHT22;1662;49.310;8.134;2023-04-24T02:49:08;10.90;99.90
3300;DHT22;1662;49.310;8.134;2023-04-24T02:51:34;10.80;99.90
3300;DHT22;1662;49.310;8.134;2023-04-24T02:54:02;10.80;99.90
3300;DHT22;1662;49.310;8.134;2023-04-24T02:56:28;10.90;99.90
3300;DHT22;1662;49.310;8.134;2023-04-24T02:58:53;10.90;99.90
3300;DHT22;1662;49.310;8.134;2023-04-24T03:01:19;10.70;99.90
3300;DHT22;1662;49.310;8.134;2023-04-24T03:03:45;10.70;99.90
3300;DHT22;1662;49.310;8.134;2023-04-24T03:06:10;10.80;99.90
3300;DHT22;1662;49.310;8.134;2023-04-24T03:08:36;10.40;99.90
3300;DHT22;1662;49.310;8.134;2023-04-24T03:11:04;10.50;99.90
3300;DHT22;1662;49.310;8.134;2023-04-24T03:13:29;10.40;99.90
3300;DHT22;1662;49.310;8.134;2023-04-24T03:15:55;10.40;99.90
3300;DHT22;1662;49.310;8.134;2023-04-24T03:18:21;10.40;99.90
3300;DHT22;1662;49.310;8.134;2023-04-24T03:20:46;10.50;99.90
3300;DHT22;1662;49.310;8.134;2023-04-24T03:23:12;10.60;99.90
3300;DHT22;1662;49.310;8.134;2023-04-24T03:28:04;10.40;99.90
3300;DHT22;1662;49.310;8.134;2023-04-24T03:30:30;10.50;99.90
3300;DHT22;1662;49.310;8.134;2023-04-24T03:32:55;10.50;99.90
3300;DHT22;1662;49.310;8.134;2023-04-24T03:42:42;10.20;99.90
3300;DHT22;1662;49.310;8.134;2023-04-24T03:45:08;10.20;99.90
3300;DHT22;1662;49.310;8.134;2023-04-24T03:50:00;10.10;99.90
3300;DHT22;1662;49.310;8.134;2023-04-24T03:52:25;10.10;99.90
3300;DHT22;1662;49.310;8.134;2023-04-24T03:54:53;10.20;99.90
3300;DHT22;1662;49.310;8.134;2023-04-24T03:57:19;10.00;99.90
3300;DHT22;1662;49.310;8.134;2023-04-24T03:59:45;9.90;99.90
3300;DHT22;1662;49.310;8.134;2023-04-24T04:02:13;9.90;99.90
3300;DHT22;1662;49.310;8.134;2023-04-24T04:04:39;9.90;99.90
3300;DHT22;1662;49.310;8.134;2023-04-24T04:07:04;9.90;99.90
3300;DHT22;1662;49.310;8.134;2023-04-24T04:09:38;9.90;99.90
3300;DHT22;1662;49.310;8.134;2023-04-24T04:12:04;9.90;99.90
3300;DHT22;1662;49.310;8.134;2023-04-24T04:14:32;9.80;99.90
3300;DHT22;1662;49.310;8.134;2023-04-24T04:16:57;9.90;99.90
3300;DHT22;1662;49.310;8.134;2023-04-24T04:19:23;10.00;99.90
3300;DHT22;1662;49.310;8.134;2023-04-24T04:21:49;9.90;99.90
3300;DHT22;1662;49.310;8.134;2023-04-24T04:24:19;9.80;99.90
3300;DHT22;1662;49.310;8.134;2023-04-24T04:26:46;9.80;99.90
3300;DHT22;1662;49.310;8.134;2023-04-24T04:29:13;9.80;99.90
3300;DHT22;1662;49.310;8.134;2023-04-24T04:31:44;9.90;99.90
3300;DHT22;1662;49.310;8.134;2023-04-24T04:34:10;9.80;99.90
3300;DHT22;1662;49.310;8.134;2023-04-24T04:36:37;9.80;99.90
3300;DHT22;1662;49.310;8.134;2023-04-24T04:39:05;9.70;99.90
3300;DHT22;1662;49.310;8.134;2023-04-24T04:41:31;9.80;99.90
3300;DHT22;1662;49.310;8.134;2023-04-24T04:43:57;9.80;99.90
3300;DHT22;1662;49.310;8.134;2023-04-24T04:46:26;9.70;99.90
3300;DHT22;1662;49.310;8.134;2023-04-24T04:48:55;9.70;99.90
3300;DHT22;1662;49.310;8.134;2023-04-24T04:51:21;9.70;99.90
3300;DHT22;1662;49.310;8.134;2023-04-24T04:53:47;9.70;99.90
3300;DHT22;1662;49.310;8.134;2023-04-24T04:56:13;9.80;99.90
3300;DHT22;1662;49.310;8.134;2023-04-24T04:58:38;9.90;99.90
3300;DHT22;1662;49.310;8.134;2023-04-24T05:01:04;9.80;99.90
3300;DHT22;1662;49.310;8.134;2023-04-24T05:03:30;9.90;99.90
3300;DHT22;1662;49.310;8.134;2023-04-24T05:05:55;9.80;99.90
3300;DHT22;1662;49.310;8.134;2023-04-24T05:08:21;10.00;99.90
3300;DHT22;1662;49.310;8.134;2023-04-24T05:10:46;9.90;99.90
3300;DHT22;1662;49.310;8.134;2023-04-24T05:13:12;9.90;99.90
3300;DHT22;1662;49.310;8.134;2023-04-24T05:15:38;9.90;99.90
3300;DHT22;1662;49.310;8.134;2023-04-24T05:18:03;9.90;99.90
3300;DHT22;1662;49.310;8.134;2023-04-24T05:20:29;9.90;99.90
3300;DHT22;1662;49.310;8.134;2023-04-24T05:22:55;9.90;99.90
3300;DHT22;1662;49.310;8.134;2023-04-24T05:25:20;9.90;99.90
3300;DHT22;1662;49.310;8.134;2023-04-24T05:27:46;10.00;99.90
3300;DHT22;1662;49.310;8.134;2023-04-24T05:30:12;9.90;99.90
3300;DHT22;1662;49.310;8.134;2023-04-24T05:32:38;10.00;99.90
3300;DHT22;1662;49.310;8.134;2023-04-24T05:35:04;10.00;99.90
3300;DHT22;1662;49.310;8.134;2023-04-24T05:37:31;10.00;99.90
3300;DHT22;1662;49.310;8.134;2023-04-24T05:39:57;10.00;99.90
3300;DHT22;1662;49.310;8.134;2023-04-24T05:42:22;10.10;99.90
3300;DHT22;1662;49.310;8.134;2023-04-24T05:44:48;10.10;99.90
3300;DHT22;1662;49.310;8.134;2023-04-24T05:47:14;10.00;99.90
3300;DHT22;1662;49.310;8.134;2023-04-24T05:49:39;10.00;99.90
3300;DHT22;1662;49.310;8.134;2023-04-24T05:52:05;10.00;99.90
3300;DHT22;1662;49.310;8.134;2023-04-24T05:54:34;9.90;99.90
3300;DHT22;1662;49.310;8.134;2023-04-24T05:56:59;9.90;99.90
3300;DHT22;1662;49.310;8.134;2023-04-24T05:59:28;9.90;99.90
3300;DHT22;1662;49.310;8.134;2023-04-24T06:01:53;9.80;99.90
3300;DHT22;1662;49.310;8.134;2023-04-24T06:04:19;9.80;99.90
3300;DHT22;1662;49.310;8.134;2023-04-24T06:06:44;9.70;99.90
3300;DHT22;1662;49.310;8.134;2023-04-24T06:09:10;9.70;99.90
3300;DHT22;1662;49.310;8.134;2023-04-24T06:11:37;9.70;99.90
3300;DHT22;1662;49.310;8.134;2023-04-24T06:14:02;9.70;99.90
3300;DHT22;1662;49.310;8.134;2023-04-24T06:16:30;9.70;99.90
3300;DHT22;1662;49.310;8.134;2023-04-24T06:18:56;9.70;99.90
3300;DHT22;1662;49.310;8.134;2023-04-24T06:21:22;9.60;99.90
3300;DHT22;1662;49.310;8.134;2023-04-24T06:23:47;9.50;99.90
3300;DHT22;1662;49.310;8.134;2023-04-24T06:26:16;9.40;99.90
3300;DHT22;1662;49.310;8.134;2023-04-24T06:28:42;9.40;99.90
3300;DHT22;1662;49.310;8.134;2023-04-24T06:31:08;9.30;99.90
3300;DHT22;1662;49.310;8.134;2023-04-24T06:33:33;9.30;99.90
3300;DHT22;1662;49.310;8.134;2023-04-24T06:35:59;9.30;99.90
3300;DHT22;1662;49.310;8.134;2023-04-24T06:38:25;9.30;99.90
3300;DHT22;1662;49.310;8.134;2023-04-24T06:40:50;9.30;99.90
3300;DHT22;1662;49.310;8.134;2023-04-24T06:43:16;9.30;99.90
3300;DHT22;1662;49.310;8.134;2023-04-24T06:45:44;9.30;99.90
3300;DHT22;1662;49.310;8.134;2023-04-24T06:48:11;9.30;99.90
3300;DHT22;1662;49.310;8.134;2023-04-24T06:50:37;9.30;99.90
3300;DHT22;1662;49.310;8.134;2023-04-24T06:53:02;9.40;99.90
3300;DHT22;1662;49.310;8.134;2023-04-24T06:55:28;9.30;99.90
3300;DHT22;1662;49.310;8.134;2023-04-24T06:57:54;9.40;99.90
3300;DHT22;1662;49.310;8.134;2023-04-24T07:00:19;9.50;99.90
3300;DHT22;1662;49.310;8.134;2023-04-24T07:02:45;9.50;99.90
3300;DHT22;1662;49.310;8.134;2023-04-24T07:05:11;9.60;99.90
3300;DHT22;1662;49.310;8.134;2023-04-24T07:07:38;9.60;99.90
3300;DHT22;1662;49.310;8.134;2023-04-24T07:10:05;9.60;99.90
3300;DHT22;1662;49.310;8.134;2023-04-24T07:12:31;9.70;99.90
3300;DHT22;1662;49.310;8.134;2023-04-24T07:14:57;9.70;99.90
3300;DHT22;1662;49.310;8.134;2023-04-24T07:17:23;9.80;99.90
3300;DHT22;1662;49.310;8.134;2023-04-24T07:19:48;9.90;99.90
3300;DHT22;1662;49.310;8.134;2023-04-24T07:22:14;10.00;99.90
3300;DHT22;1662;49.310;8.134;2023-04-24T07:24:43;10.10;99.90
3300;DHT22;1662;49.310;8.134;2023-04-24T07:27:09;10.10;99.90
3300;DHT22;1662;49.310;8.134;2023-04-24T07:29:34;10.20;99.90
3300;DHT22;1662;49.310;8.134;2023-04-24T07:32:01;10.20;99.90
3300;DHT22;1662;49.310;8.134;2023-04-24T07:34:29;10.30;99.90
3300;DHT22;1662;49.310;8.134;2023-04-24T07:36:54;10.40;99.90
3300;DHT22;1662;49.310;8.134;2023-04-24T07:39:20;10.50;99.90
3300;DHT22;1662;49.310;8.134;2023-04-24T07:41:51;10.50;99.90
3300;DHT22;1662;49.310;8.134;2023-04-24T07:44:16;10.50;99.90
3300;DHT22;1662;49.310;8.134;2023-04-24T07:46:42;10.60;99.90
3300;DHT22;1662;49.310;8.134;2023-04-24T07:49:07;10.70;99.90
3300;DHT22;1662;49.310;8.134;2023-04-24T07:51:33;10.50;99.90
3300;DHT22;1662;49.310;8.134;2023-04-24T07:54:06;10.60;99.90
3300;DHT22;1662;49.310;8.134;2023-04-24T07:56:32;10.60;99.90
3300;DHT22;1662;49.310;8.134;2023-04-24T07:58:58;10.60;99.90
3300;DHT22;1662;49.310;8.134;2023-04-24T08:01:24;10.60;99.90
3300;DHT22;1662;49.310;8.134;2023-04-24T08:03:50;10.50;99.90
3300;DHT22;1662;49.310;8.134;2023-04-24T08:06:16;10.60;99.90
3300;DHT22;1662;49.310;8.134;2023-04-24T08:08:42;10.60;99.90
3300;DHT22;1662;49.310;8.134;2023-04-24T08:11:07;10.50;99.90
3300;DHT22;1662;49.310;8.134;2023-04-24T08:13:33;10.50;99.90
3300;DHT22;1662;49.310;8.134;2023-04-24T08:15:58;10.40;99.90
3300;DHT22;1662;49.310;8.134;2023-04-24T08:18:24;10.40;99.90
3300;DHT22;1662;49.310;8.134;2023-04-24T08:20:52;10.30;99.90
3300;DHT22;1662;49.310;8.134;2023-04-24T08:23:18;10.40;99.90
3300;DHT22;1662;49.310;8.134;2023-04-24T08:25:43;10.40;99.90
3300;DHT22;1662;49.310;8.134;2023-04-24T08:28:09;10.50;99.90
3300;DHT22;1662;49.310;8.134;2023-04-24T08:30:36;10.70;99.90
3300;DHT22;1662;49.310;8.134;2023-04-24T08:33:02;10.80;99.90
3300;DHT22;1662;49.310;8.134;2023-04-24T08:35:27;10.90;99.90
3300;DHT22;1662;49.310;8.134;2023-04-24T08:37:56;10.90;99.90
3300;DHT22;1662;49.310;8.134;2023-04-24T08:40:27;10.90;99.90
3300;DHT22;1662;49.310;8.134;2023-04-24T08:42:55;10.90;99.90
3300;DHT22;1662;49.310;8.134;2023-04-24T08:45:24;10.90;99.90
3300;DHT22;1662;49.310;8.134;2023-04-24T08:47:52;11.10;99.90
3300;DHT22;1662;49.310;8.134;2023-04-24T08:50:20;11.10;99.90
3300;DHT22;1662;49.310;8.134;2023-04-24T08:52:47;11.10;99.90
3300;DHT22;1662;49.310;8.134;2023-04-24T08:55:15;11.10;99.90
3300;DHT22;1662;49.310;8.134;2023-04-24T08:57:45;11.10;99.90
3300;DHT22;1662;49.310;8.134;2023-04-24T09:00:11;11.10;99.90
3300;DHT22;1662;49.310;8.134;2023-04-24T09:02:41;11.10;99.90
3300;DHT22;1662;49.310;8.134;2023-04-24T09:05:08;11.10;99.90
3300;DHT22;1662;49.310;8.134;2023-04-24T09:07:35;11.10;99.90
3300;DHT22;1662;49.310;8.134;2023-04-24T09:10:04;11.20;99.90
3300;DHT22;1662;49.310;8.134;2023-04-24T09:12:32;11.30;99.90
3300;DHT22;1662;49.310;8.134;2023-04-24T09:14:58;11.40;99.90
3300;DHT22;1662;49.310;8.134;2023-04-24T09:17:24;11.50;99.90
3300;DHT22;1662;49.310;8.134;2023-04-24T09:19:52;11.60;99.90
3300;DHT22;1662;49.310;8.134;2023-04-24T09:22:18;11.70;99.90
3300;DHT22;1662;49.310;8.134;2023-04-24T09:24:45;11.90;99.90
3300;DHT22;1662;49.310;8.134;2023-04-24T09:27:11;12.00;99.90
3300;DHT22;1662;49.310;8.134;2023-04-24T09:29:38;11.80;99.90
3300;DHT22;1662;49.310;8.134;2023-04-24T09:32:20;11.80;99.90
3300;DHT22;1662;49.310;8.134;2023-04-24T09:37:45;11.70;99.90
3300;DHT22;1662;49.310;8.134;2023-04-24T09:40:21;11.60;99.90
3300;DHT22;1662;49.310;8.134;2023-04-24T09:42:56;11.60;99.90
3300;DHT22;1662;49.310;8.134;2023-04-24T09:45:36;11.50;99.90
3300;DHT22;1662;49.310;8.134;2023-04-24T09:48:02;11.40;99.90
3300;DHT22;1662;49.310;8.134;2023-04-24T09:50:30;11.40;99.90
3300;DHT22;1662;49.310;8.134;2023-04-24T09:52:58;11.60;99.90
3300;DHT22;1662;49.310;8.134;2023-04-24T09:55:25;11.20;99.90
3300;DHT22;1662;49.310;8.134;2023-04-24T09:57:57;11.10;99.90
3300;DHT22;1662;49.310;8.134;2023-04-24T10:03:03;10.90;99.90
3300;DHT22;1662;49.310;8.134;2023-04-24T10:05:38;11.00;99.90
3300;DHT22;1662;49.310;8.134;2023-04-24T10:08:06;11.00;99.90
3300;DHT22;1662;49.310;8.134;2023-04-24T10:10:33;10.90;99.90
3300;DHT22;1662;49.310;8.134;2023-04-24T10:13:04;11.00;99.90
3300;DHT22;1662;49.310;8.134;2023-04-24T10:15:30;10.80;99.90
3300;DHT22;1662;49.310;8.134;2023-04-24T10:17:58;10.80;99.90
3300;DHT22;1662;49.310;8.134;2023-04-24T10:20:26;10.80;99.90
3300;DHT22;1662;49.310;8.134;2023-04-24T10:22:53;10.70;99.90
3300;DHT22;1662;49.310;8.134;2023-04-24T10:25:24;10.70;99.90
3300;DHT22;1662;49.310;8.134;2023-04-24T10:27:51;10.60;99.90
3300;DHT22;1662;49.310;8.134;2023-04-24T10:30:18;10.70;99.90
3300;DHT22;1662;49.310;8.134;2023-04-24T10:32:44;10.70;99.90
3300;DHT22;1662;49.310;8.134;2023-04-24T10:35:12;10.90;99.90
3300;DHT22;1662;49.310;8.134;2023-04-24T10:37:41;11.00;99.90
3300;DHT22;1662;49.310;8.134;2023-04-24T10:40:09;11.00;99.90
3300;DHT22;1662;49.310;8.134;2023-04-24T10:42:35;11.10;99.90
3300;DHT22;1662;49.310;8.134;2023-04-24T10:45:06;11.20;99.90
3300;DHT22;1662;49.310;8.134;2023-04-24T10:47:40;11.10;99.90
3300;DHT22;1662;49.310;8.134;2023-04-24T10:50:15;11.10;99.90
3300;DHT22;1662;49.310;8.134;2023-04-24T10:52:45;11.20;99.90
3300;DHT22;1662;49.310;8.134;2023-04-24T10:55:13;11.20;99.90
3300;DHT22;1662;49.310;8.134;2023-04-24T10:57:39;11.30;99.90
3300;DHT22;1662;49.310;8.134;2023-04-24T11:00:21;11.40;99.90
3300;DHT22;1662;49.310;8.134;2023-04-24T11:02:47;11.70;99.90
3300;DHT22;1662;49.310;8.134;2023-04-24T11:05:16;12.00;99.90
3300;DHT22;1662;49.310;8.134;2023-04-24T11:08:15;12.20;99.90
3300;DHT22;1662;49.310;8.134;2023-04-24T11:10:45;12.20;99.90
3300;DHT22;1662;49.310;8.134;2023-04-24T11:13:15;12.20;99.90
3300;DHT22;1662;49.310;8.134;2023-04-24T11:15:43;12.30;99.90
3300;DHT22;1662;49.310;8.134;2023-04-24T11:18:15;12.30;99.90
3300;DHT22;1662;49.310;8.134;2023-04-24T11:20:44;12.40;99.90
3300;DHT22;1662;49.310;8.134;2023-04-24T11:23:13;12.30;99.90
3300;DHT22;1662;49.310;8.134;2023-04-24T11:25:39;12.20;99.90
3300;DHT22;1662;49.310;8.134;2023-04-24T11:28:06;12.30;99.90
3300;DHT22;1662;49.310;8.134;2023-04-24T11:30:33;12.30;99.90
3300;DHT22;1662;49.310;8.134;2023-04-24T11:33:03;12.30;99.90
3300;DHT22;1662;49.310;8.134;2023-04-24T11:35:29;12.20;99.90
3300;DHT22;1662;49.310;8.134;2023-04-24T11:37:56;12.10;99.90
3300;DHT22;1662;49.310;8.134;2023-04-24T11:40:23;12.10;99.90
3300;DHT22;1662;49.310;8.134;2023-04-24T11:42:52;12.20;99.90
3300;DHT22;1662;49.310;8.134;2023-04-24T11:45:25;12.50;99.90
3300;DHT22;1662;49.310;8.134;2023-04-24T11:47:51;12.70;99.90
3300;DHT22;1662;49.310;8.134;2023-04-24T11:50:21;13.00;99.90
3300;DHT22;1662;49.310;8.134;2023-04-24T11:52:48;13.10;99.90
3300;DHT22;1662;49.310;8.134;2023-04-24T11:57:39;13.30;99.90
3300;DHT22;1662;49.310;8.134;2023-04-24T12:00:15;13.20;99.90
3300;DHT22;1662;49.310;8.134;2023-04-24T12:02:42;13.20;99.90
3300;DHT22;1662;49.310;8.134;2023-04-24T12:05:07;13.20;99.90
3300;DHT22;1662;49.310;8.134;2023-04-24T12:07:41;13.10;99.90
3300;DHT22;1662;49.310;8.134;2023-04-24T12:10:08;13.00;99.90
3300;DHT22;1662;49.310;8.134;2023-04-24T12:12:34;12.90;99.90
3300;DHT22;1662;49.310;8.134;2023-04-24T12:15:01;12.90;99.90
3300;DHT22;1662;49.310;8.134;2023-04-24T12:17:33;12.90;99.90
3300;DHT22;1662;49.310;8.134;2023-04-24T12:20:04;12.90;99.90
3300;DHT22;1662;49.310;8.134;2023-04-24T12:23:02;12.90;99.90
3300;DHT22;1662;49.310;8.134;2023-04-24T12:25:30;12.80;99.90
3300;DHT22;1662;49.310;8.134;2023-04-24T12:30:33;12.90;99.90
3300;DHT22;1662;49.310;8.134;2023-04-24T12:33:00;13.20;99.90
3300;DHT22;1662;49.310;8.134;2023-04-24T12:35:28;13.30;99.90
3300;DHT22;1662;49.310;8.134;2023-04-24T12:37:54;13.40;99.90
3300;DHT22;1662;49.310;8.134;2023-04-24T12:40:21;13.50;99.90
3300;DHT22;1662;49.310;8.134;2023-04-24T12:42:51;13.60;99.90
3300;DHT22;1662;49.310;8.134;2023-04-24T12:45:18;13.80;99.90
3300;DHT22;1662;49.310;8.134;2023-04-24T12:47:45;14.30;99.90
3300;DHT22;1662;49.310;8.134;2023-04-24T12:50:13;14.50;99.90
3300;DHT22;1662;49.310;8.134;2023-04-24T12:52:42;14.60;99.90
3300;DHT22;1662;49.310;8.134;2023-04-24T12:55:08;14.70;99.90
3300;DHT22;1662;49.310;8.134;2023-04-24T12:57:35;14.60;99.90
3300;DHT22;1662;49.310;8.134;2023-04-24T13:00:02;14.30;99.90
3300;DHT22;1662;49.310;8.134;2023-04-24T13:02:29;14.30;99.90
3300;DHT22;1662;49.310;8.134;2023-04-24T13:04:56;14.30;99.90
3300;DHT22;1662;49.310;8.134;2023-04-24T13:07:22;14.30;99.90
3300;DHT22;1662;49.310;8.134;2023-04-24T13:09:50;14.20;99.90
3300;DHT22;1662;49.310;8.134;2023-04-24T13:12:16;14.30;99.90
3300;DHT22;1662;49.310;8.134;2023-04-24T13:14:42;14.30;99.90
3300;DHT22;1662;49.310;8.134;2023-04-24T13:17:07;14.40;99.90
3300;DHT22;1662;49.310;8.134;2023-04-24T13:19:41;14.50;99.90
3300;DHT22;1662;49.310;8.134;2023-04-24T13:22:10;14.40;99.90
3300;DHT22;1662;49.310;8.134;2023-04-24T13:24:38;14.40;99.90
3300;DHT22;1662;49.310;8.134;2023-04-24T13:27:06;14.20;99.90
3300;DHT22;1662;49.310;8.134;2023-04-24T13:29:31;14.20;99.90
3300;DHT22;1662;49.310;8.134;2023-04-24T13:31:57;14.10;99.90
3300;DHT22;1662;49.310;8.134;2023-04-24T13:34:24;14.20;99.90
3300;DHT22;1662;49.310;8.134;2023-04-24T13:36:54;14.50;99.90
3300;DHT22;1662;49.310;8.134;2023-04-24T13:39:21;14.90;99.90
3300;DHT22;1662;49.310;8.134;2023-04-24T13:41:46;15.40;99.90
3300;DHT22;1662;49.310;8.134;2023-04-24T13:44:14;15.50;99.90
3300;DHT22;1662;49.310;8.134;2023-04-24T13:46:42;15.70;99.90
3300;DHT22;1662;49.310;8.134;2023-04-24T13:49:10;15.60;99.90
3300;DHT22;1662;49.310;8.134;2023-04-24T13:51:35;15.70;99.90
3300;DHT22;1662;49.310;8.134;2023-04-24T13:54:01;15.40;99.90
3300;DHT22;1662;49.310;8.134;2023-04-24T13:56:27;15.20;99.90
3300;DHT22;1662;49.310;8.134;2023-04-24T13:58:52;14.90;99.90
3300;DHT22;1662;49.310;8.134;2023-04-24T14:01:19;14.80;99.90
3300;DHT22;1662;49.310;8.134;2023-04-24T14:03:46;14.60;99.90
3300;DHT22;1662;49.310;8.134;2023-04-24T14:06:11;14.40;99.90
3300;DHT22;1662;49.310;8.134;2023-04-24T14:08:37;14.20;99.90
3300;DHT22;1662;49.310;8.134;2023-04-24T14:11:05;14.10;99.90
3300;DHT22;1662;49.310;8.134;2023-04-24T14:13:31;14.00;99.90
3300;DHT22;1662;49.310;8.134;2023-04-24T14:15:57;13.80;99.90
3300;DHT22;1662;49.310;8.134;2023-04-24T14:18:26;13.70;99.90
3300;DHT22;1662;49.310;8.134;2023-04-24T14:20:52;13.60;99.90
3300;DHT22;1662;49.310;8.134;2023-04-24T14:23:18;13.50;99.90
3300;DHT22;1662;49.310;8.134;2023-04-24T14:25:43;13.80;99.90
3300;DHT22;1662;49.310;8.134;2023-04-24T14:28:09;14.30;99.90
3300;DHT22;1662;49.310;8.134;2023-04-24T14:30:35;14.80;99.90
3300;DHT22;1662;49.310;8.134;2023-04-24T14:33:03;15.00;99.90
3300;DHT22;1662;49.310;8.134;2023-04-24T14:35:32;15.00;99.90
3300;DHT22;1662;49.310;8.134;2023-04-24T14:37:59;14.60;99.90
3300;DHT22;1662;49.310;8.134;2023-04-24T14:40:25;14.40;99.90
3300;DHT22;1662;49.310;8.134;2023-04-24T14:42:51;14.30;99.90
3300;DHT22;1662;49.310;8.134;2023-04-24T14:45:17;14.20;99.90
3300;DHT22;1662;49.310;8.134;2023-04-24T14:47:42;14.50;99.90
3300;DHT22;1662;49.310;8.134;2023-04-24T14:50:08;14.50;99.90
3300;DHT22;1662;49.310;8.134;2023-04-24T14:52:34;14.80;99.90
3300;DHT22;1662;49.310;8.134;2023-04-24T14:55:00;14.90;99.90
3300;DHT22;1662;49.310;8.134;2023-04-24T14:57:25;14.60;99.90
3300;DHT22;1662;49.310;8.134;2023-04-24T14:59:51;14.40;99.90
3300;DHT22;1662;49.310;8.134;2023-04-24T15:02:17;14.30;99.90
3300;DHT22;1662;49.310;8.134;2023-04-24T15:04:42;14.10;99.90
3300;DHT22;1662;49.310;8.134;2023-04-24T15:07:08;14.10;99.90
3300;DHT22;1662;49.310;8.134;2023-04-24T15:09:33;13.90;99.90
3300;DHT22;1662;49.310;8.134;2023-04-24T15:11:59;13.70;99.90
3300;DHT22;1662;49.310;8.134;2023-04-24T15:14:25;13.50;99.90
3300;DHT22;1662;49.310;8.134;2023-04-24T15:16:50;13.50;99.90
3300;DHT22;1662;49.310;8.134;2023-04-24T15:19:16;13.50;99.90
3300;DHT22;1662;49.310;8.134;2023-04-24T15:21:42;13.50;99.90
3300;DHT22;1662;49.310;8.134;2023-04-24T15:24:10;13.50;99.90
3300;DHT22;1662;49.310;8.134;2023-04-24T15:26:35;13.50;99.90
3300;DHT22;1662;49.310;8.134;2023-04-24T15:29:04;13.50;99.90
3300;DHT22;1662;49.310;8.134;2023-04-24T15:31:30;13.60;99.90
3300;DHT22;1662;49.310;8.134;2023-04-24T15:33:56;13.90;99.90
3300;DHT22;1662;49.310;8.134;2023-04-24T15:36:21;14.20;99.90
3300;DHT22;1662;49.310;8.134;2023-04-24T15:38:50;14.60;99.90
3300;DHT22;1662;49.310;8.134;2023-04-24T15:41:15;14.60;99.90
3300;DHT22;1662;49.310;8.134;2023-04-24T15:43:41;14.40;99.90
3300;DHT22;1662;49.310;8.134;2023-04-24T15:46:08;14.50;99.90
3300;DHT22;1662;49.310;8.134;2023-04-24T15:48:34;14.70;99.90
3300;DHT22;1662;49.310;8.134;2023-04-24T15:51:00;15.00;99.90
3300;DHT22;1662;49.310;8.134;2023-04-24T15:53:26;15.10;99.90
3300;DHT22;1662;49.310;8.134;2023-04-24T15:55:53;15.30;99.90
3300;DHT22;1662;49.310;8.134;2023-04-24T15:58:21;15.40;99.90
3300;DHT22;1662;49.310;8.134;2023-04-24T16:00:47;15.50;99.90
3300;DHT22;1662;49.310;8.134;2023-04-24T16:03:14;15.60;99.90
3300;DHT22;1662;49.310;8.134;2023-04-24T16:05:40;15.70;99.90
3300;DHT22;1662;49.310;8.134;2023-04-24T16:08:06;15.60;99.90
3300;DHT22;1662;49.310;8.134;2023-04-24T16:10:31;15.80;99.90
3300;DHT22;1662;49.310;8.134;2023-04-24T16:12:58;15.80;99.90
3300;DHT22;1662;49.310;8.134;2023-04-24T16:15:25;15.20;99.90
3300;DHT22;1662;49.310;8.134;2023-04-24T16:17:51;15.00;99.90
3300;DHT22;1662;49.310;8.134;2023-04-24T16:20:17;14.80;99.90
3300;DHT22;1662;49.310;8.134;2023-04-24T16:22:45;14.70;99.90
3300;DHT22;1662;49.310;8.134;2023-04-24T16:25:11;14.60;99.90
3300;DHT22;1662;49.310;8.134;2023-04-24T16:27:36;14.30;99.90